To NAV CANADA Home Page Login to a new session Search on AWWS site Feedback and Comments Disclaimer Vers la page française équivalente Tips FAQ What's new on the site To the Forecasts and Observations / NOTAM section To "File a Flight Plan" website Publications and other links Update of the User's profile FIC Telephone Numbers My Weather Data Folder Route Weather Data Regional Weather Data Local Weather Data To the Forecasts and Observations / NOTAM section
Request Generated 05/02/2016 at 10:40:00 UTC . Weather information available at that time is displayed.

METAR/TAF

KINGSTON/ON    

SPECI CYGK 021022Z 02007KT 2 1/2SM BR OVC005 07/06 A2995 RMK FG2ST6
SLP148=
METAR CYGK 021000Z 01007KT 3/4SM BR OVC004 07/06 A2997 RMK FG4ST4
SLP153=
LWIS CYGK 020900Z AUTO 02006KT 07/06 A2996=
LWIS CYGK 020800Z AUTO 01006KT 07/06 A2999=

*** REMARK        : Forecast period has ended; this was the last TAF issued
*** REMARQUE : La période de prévision est échue; ceci était le dernier TAF qui a été émis
TAF AMD CYGK 020218Z 0202/0203 02010KT 4SM -RA BR OVC006 TEMPO
0202/0203 6SM -DZ BR
RMK NXT FCST WILL BE ISSUED AT 021145Z=
Your time UTC time
Weather data provided by Environment Canada and NAV CANADA